createdAt,value
2019-02-28T00:00:10.389Z,28.00
2019-02-28T00:02:42.963Z,28.10
2019-02-28T00:05:10.621Z,28.10
2019-02-28T00:07:38.264Z,28.00
2019-02-28T00:10:06.978Z,28.10
2019-02-28T00:12:34.609Z,28.20
2019-02-28T00:15:02.273Z,28.40
2019-02-28T00:17:29.911Z,28.60
2019-02-28T00:20:02.263Z,28.60
2019-02-28T00:22:27.083Z,28.60
2019-02-28T00:24:54.699Z,28.60
2019-02-28T00:27:22.395Z,28.60
2019-02-28T00:29:50.057Z,28.60
2019-02-28T00:32:17.923Z,28.60
2019-02-28T00:34:45.567Z,28.60
2019-02-28T00:37:13.238Z,28.50
2019-02-28T00:39:40.877Z,28.50
2019-02-28T00:42:08.460Z,28.50
2019-02-28T00:44:36.069Z,28.50
2019-02-28T00:47:03.706Z,28.50
2019-02-28T00:49:31.290Z,28.50
2019-02-28T00:52:01.601Z,28.50
2019-02-28T00:54:28.267Z,28.50
2019-02-28T00:56:55.861Z,28.50
2019-02-28T00:59:23.639Z,29.10
2019-02-28T01:01:51.367Z,28.50
2019-02-28T01:04:18.993Z,28.30
2019-02-28T01:06:46.649Z,28.50
2019-02-28T01:09:14.370Z,28.50
2019-02-28T01:11:44.950Z,28.50
2019-02-28T01:14:11.277Z,28.50
2019-02-28T01:16:38.941Z,29.00
2019-02-28T01:19:09.046Z,28.50
2019-02-28T01:21:35.917Z,28.50
2019-02-28T01:24:03.642Z,28.50
2019-02-28T01:26:31.229Z,28.50
2019-02-28T01:29:01.999Z,28.50
2019-02-28T01:31:31.292Z,28.50
2019-02-28T01:33:59.373Z,28.50
2019-02-28T01:36:27.016Z,28.50
2019-02-28T01:38:57.535Z,28.50
2019-02-28T01:41:23.979Z,28.50
2019-02-28T01:43:51.621Z,28.50
2019-02-28T01:46:19.202Z,28.50
2019-02-28T01:48:46.793Z,28.50
2019-02-28T01:51:14.443Z,28.50
2019-02-28T01:53:42.131Z,28.50
2019-02-28T01:56:09.773Z,28.50
2019-02-28T01:58:37.443Z,29.00
2019-02-28T02:01:05.035Z,29.00
2019-02-28T02:03:32.633Z,28.50
2019-02-28T02:06:00.265Z,28.50
2019-02-28T02:08:27.855Z,28.50
2019-02-28T02:10:56.150Z,28.50
2019-02-28T02:13:23.847Z,28.50
2019-02-28T02:15:52.091Z,28.50
2019-02-28T02:18:19.869Z,28.50
2019-02-28T02:20:47.521Z,28.50
2019-02-28T02:23:17.898Z,28.50
2019-02-28T02:25:44.549Z,28.50
2019-02-28T02:28:12.227Z,28.50
2019-02-28T02:30:39.794Z,28.50
2019-02-28T02:33:14.079Z,28.50
2019-02-28T02:35:42.142Z,28.50
2019-02-28T02:38:11.787Z,28.50
2019-02-28T02:40:39.435Z,28.50
2019-02-28T02:43:07.046Z,28.50
2019-02-28T02:45:41.731Z,28.50
2019-02-28T02:48:05.215Z,28.50
2019-02-28T02:50:35.871Z,28.50
2019-02-28T02:53:05.576Z,28.50
2019-02-28T02:55:32.101Z,28.50
2019-02-28T02:57:59.713Z,28.50
2019-02-28T03:00:27.447Z,28.60
2019-02-28T03:02:55.138Z,28.50
2019-02-28T03:05:22.743Z,28.50
2019-02-28T03:07:50.342Z,28.50
2019-02-28T03:10:19.755Z,28.50
2019-02-28T03:12:47.387Z,28.50
2019-02-28T03:15:15.538Z,28.50
2019-02-28T03:17:46.676Z,28.50
2019-02-28T03:20:12.833Z,28.50
2019-02-28T03:22:40.552Z,28.50
2019-02-28T03:25:09.435Z,28.50
2019-02-28T03:27:37.099Z,28.50
2019-02-28T03:30:06.408Z,28.50
2019-02-28T03:32:41.955Z,28.50
2019-02-28T03:35:04.009Z,28.50
2019-02-28T03:37:33.569Z,28.50
2019-02-28T03:40:04.254Z,28.50
2019-02-28T03:42:30.333Z,28.50
2019-02-28T03:44:58.294Z,28.40
2019-02-28T03:47:26.072Z,28.40
2019-02-28T03:49:53.740Z,28.40
2019-02-28T03:52:21.475Z,28.50
2019-02-28T03:54:49.050Z,28.40
2019-02-28T03:57:16.652Z,28.50
2019-02-28T03:59:44.285Z,28.50
2019-02-28T04:02:11.878Z,28.40
2019-02-28T04:04:39.545Z,28.40
2019-02-28T04:07:07.194Z,28.40
2019-02-28T04:09:34.791Z,28.40
2019-02-28T04:12:07.264Z,28.40
2019-02-28T04:14:33.016Z,28.40
2019-02-28T04:17:01.055Z,28.40
2019-02-28T04:19:28.722Z,28.40
2019-02-28T04:21:56.423Z,28.50
2019-02-28T04:24:24.058Z,28.40
2019-02-28T04:26:51.677Z,28.40
2019-02-28T04:29:19.266Z,28.40
2019-02-28T04:31:46.893Z,28.40
2019-02-28T04:34:14.539Z,28.40
2019-02-28T04:36:42.415Z,28.40
2019-02-28T04:39:10.054Z,28.40
2019-02-28T04:41:37.641Z,28.40
2019-02-28T04:44:05.234Z,28.40
2019-02-28T04:46:32.863Z,28.40
2019-02-28T04:49:00.443Z,28.40
2019-02-28T04:51:28.016Z,28.40
2019-02-28T04:53:55.642Z,28.40
2019-02-28T04:56:23.246Z,28.40
2019-02-28T04:58:50.918Z,28.40
2019-02-28T05:01:18.614Z,28.40
2019-02-28T05:03:46.194Z,28.40
2019-02-28T05:06:13.836Z,28.40
2019-02-28T05:08:41.470Z,28.30
2019-02-28T05:11:09.167Z,28.40
2019-02-28T05:13:37.090Z,28.40
2019-02-28T05:16:04.687Z,28.30
2019-02-28T05:18:32.268Z,28.20
2019-02-28T05:20:59.926Z,28.20
2019-02-28T05:23:27.516Z,28.00
2019-02-28T05:25:55.099Z,28.10
2019-02-28T05:28:22.744Z,28.00
2019-02-28T05:30:53.679Z,28.00
2019-02-28T05:33:19.774Z,28.10
2019-02-28T05:35:47.386Z,27.80
2019-02-28T05:38:15.010Z,28.10
2019-02-28T05:40:42.661Z,28.00
2019-02-28T05:43:10.272Z,27.90
2019-02-28T05:45:37.932Z,27.80
2019-02-28T05:48:05.546Z,27.90
2019-02-28T05:50:33.218Z,27.80
2019-02-28T05:53:02.926Z,28.20
2019-02-28T05:55:30.178Z,27.80
2019-02-28T05:57:57.772Z,27.80
2019-02-28T06:00:25.675Z,27.80
2019-02-28T06:02:54.500Z,27.80
2019-02-28T06:05:22.600Z,27.80
2019-02-28T06:07:50.348Z,28.00
2019-02-28T06:10:23.497Z,28.30
2019-02-28T06:12:47.371Z,27.70
2019-02-28T06:15:15.662Z,27.80
2019-02-28T06:17:43.294Z,27.70
2019-02-28T06:20:11.294Z,27.80
2019-02-28T06:22:38.873Z,27.70
2019-02-28T06:25:07.206Z,28.00
2019-02-28T06:27:41.679Z,27.80
2019-02-28T06:30:11.872Z,27.70
2019-02-28T06:32:39.485Z,27.80
2019-02-28T06:35:07.167Z,28.30
2019-02-28T06:37:35.393Z,28.30
2019-02-28T06:40:05.779Z,28.30
2019-02-28T06:42:33.436Z,28.40
2019-02-28T06:45:02.495Z,28.30
2019-02-28T06:47:30.394Z,28.30
2019-02-28T06:49:57.973Z,28.30
2019-02-28T06:52:26.021Z,28.30
2019-02-28T06:54:54.346Z,28.40
2019-02-28T06:57:21.975Z,28.30
2019-02-28T06:59:49.576Z,28.30
2019-02-28T07:02:17.222Z,28.30
2019-02-28T07:04:45.487Z,28.30
2019-02-28T07:07:14.151Z,28.40
2019-02-28T07:09:41.849Z,28.40
2019-02-28T07:12:09.448Z,28.30
2019-02-28T07:14:37.090Z,28.30
2019-02-28T07:17:07.682Z,28.30
2019-02-28T07:19:34.143Z,28.40
2019-02-28T07:22:01.733Z,28.30
2019-02-28T07:24:29.419Z,28.40
2019-02-28T07:26:57.045Z,28.40
2019-02-28T07:29:24.767Z,28.40
2019-02-28T07:31:52.369Z,28.40
2019-02-28T07:34:23.857Z,28.50
2019-02-28T07:36:49.337Z,28.40
2019-02-28T07:39:16.939Z,28.50
2019-02-28T07:41:44.615Z,28.40
2019-02-28T07:44:12.263Z,28.40
2019-02-28T07:46:42.408Z,28.40
2019-02-28T07:49:09.147Z,28.40
2019-02-28T07:51:36.816Z,28.40
2019-02-28T07:54:04.526Z,28.40
2019-02-28T07:56:32.123Z,28.40
2019-02-28T07:58:59.727Z,28.40
2019-02-28T08:01:27.669Z,28.40
2019-02-28T08:03:56.192Z,28.20
2019-02-28T08:06:23.799Z,28.20
2019-02-28T08:08:51.401Z,28.20
2019-02-28T08:11:19.941Z,27.70
2019-02-28T08:13:48.277Z,27.50
2019-02-28T08:16:15.914Z,27.60
2019-02-28T08:18:43.519Z,27.40
2019-02-28T08:21:11.099Z,27.40
2019-02-28T08:23:38.877Z,27.90
2019-02-28T08:26:06.526Z,27.20
2019-02-28T08:28:36.791Z,27.20
2019-02-28T08:31:05.127Z,27.10
2019-02-28T08:33:32.747Z,26.90
2019-02-28T08:36:00.469Z,26.60
2019-02-28T08:38:30.135Z,26.50
2019-02-28T08:40:57.463Z,26.60
2019-02-28T08:43:27.352Z,26.50
2019-02-28T08:45:54.433Z,26.40
2019-02-28T08:48:22.114Z,26.40
2019-02-28T08:50:52.611Z,26.40
2019-02-28T08:53:19.672Z,26.40
2019-02-28T08:55:47.364Z,26.20
2019-02-28T08:58:15.117Z,26.20
2019-02-28T09:00:43.051Z,26.00
2019-02-28T09:03:10.989Z,25.70
2019-02-28T09:05:39.267Z,25.70
2019-02-28T09:08:06.939Z,25.30
2019-02-28T09:10:34.623Z,25.40
2019-02-28T09:13:02.343Z,25.50
2019-02-28T09:15:31.252Z,25.10
2019-02-28T09:17:59.718Z,25.20
2019-02-28T09:20:27.401Z,25.20
2019-02-28T09:22:55.010Z,25.00
2019-02-28T09:25:23.228Z,25.10
2019-02-28T09:27:50.995Z,24.90
2019-02-28T09:30:19.848Z,24.80
2019-02-28T09:32:48.147Z,24.70
2019-02-28T09:35:16.557Z,24.70
2019-02-28T09:37:44.214Z,24.40
2019-02-28T09:40:14.643Z,24.40
2019-02-28T09:42:42.295Z,24.30
2019-02-28T09:45:11.364Z,24.60
2019-02-28T09:47:39.009Z,24.20
2019-02-28T09:50:08.225Z,24.20
2019-02-28T09:52:41.239Z,24.20
2019-02-28T09:55:05.646Z,23.90
2019-02-28T09:57:33.277Z,23.90
2019-02-28T10:00:00.888Z,23.90
2019-02-28T10:02:28.554Z,23.90
2019-02-28T10:04:56.196Z,23.90
2019-02-28T10:07:26.476Z,23.90
2019-02-28T10:09:53.134Z,24.40
2019-02-28T10:12:20.835Z,23.90
2019-02-28T10:14:48.483Z,23.90
2019-02-28T10:17:16.059Z,23.90
2019-02-28T10:19:45.891Z,23.90
2019-02-28T10:22:13.598Z,23.90
2019-02-28T10:24:41.298Z,23.90
2019-02-28T10:27:08.926Z,23.90
2019-02-28T10:29:38.414Z,23.90
2019-02-28T10:32:06.161Z,23.90
2019-02-28T10:34:35.455Z,24.00
2019-02-28T10:37:04.367Z,24.00
2019-02-28T10:39:32.001Z,24.10
2019-02-28T10:42:01.475Z,24.00
2019-02-28T10:44:30.720Z,24.00
2019-02-28T10:46:58.362Z,24.10
2019-02-28T10:49:25.981Z,24.10
2019-02-28T10:51:53.582Z,24.10
2019-02-28T10:54:21.269Z,24.10
2019-02-28T10:56:48.868Z,24.10
2019-02-28T10:59:16.514Z,24.10
2019-02-28T11:01:44.098Z,24.10
2019-02-28T11:04:11.705Z,24.10
2019-02-28T11:06:39.354Z,24.10
2019-02-28T11:09:06.970Z,24.10
2019-02-28T11:11:34.583Z,24.10
2019-02-28T11:14:03.957Z,24.10
2019-02-28T11:16:31.640Z,24.10
2019-02-28T11:18:59.234Z,24.10
2019-02-28T11:21:29.828Z,24.20
2019-02-28T11:23:56.278Z,24.10
2019-02-28T11:26:23.936Z,24.60
2019-02-28T11:28:51.515Z,24.50
2019-02-28T11:31:19.956Z,24.30
2019-02-28T11:33:47.676Z,24.20
2019-02-28T11:36:15.265Z,24.00
2019-02-28T11:38:42.905Z,24.00
2019-02-28T11:41:10.494Z,23.90
2019-02-28T11:43:38.630Z,23.90
2019-02-28T11:46:06.418Z,23.90
2019-02-28T11:48:34.048Z,23.90
2019-02-28T11:51:01.712Z,23.90
2019-02-28T11:53:29.440Z,23.90
2019-02-28T11:55:57.047Z,23.90
2019-02-28T11:58:24.655Z,23.90
2019-02-28T12:00:52.382Z,23.90
2019-02-28T12:03:20.048Z,23.90
2019-02-28T12:05:50.620Z,23.90
2019-02-28T12:08:17.001Z,23.90
2019-02-28T12:10:44.604Z,23.90
2019-02-28T12:13:12.259Z,23.90
2019-02-28T12:15:40.334Z,23.90
2019-02-28T12:18:08.014Z,23.90
2019-02-28T12:20:35.716Z,23.90
2019-02-28T12:23:03.314Z,23.90
2019-02-28T12:25:31.031Z,23.90
2019-02-28T12:27:59.377Z,23.90
2019-02-28T12:30:31.806Z,23.90
2019-02-28T12:32:59.442Z,23.90
2019-02-28T12:35:27.037Z,24.20
2019-02-28T12:37:55.019Z,23.90
2019-02-28T12:40:24.471Z,24.30
2019-02-28T12:42:52.068Z,24.20
2019-02-28T12:45:24.253Z,24.20
2019-02-28T12:47:50.657Z,24.20
2019-02-28T12:50:18.245Z,24.20
2019-02-28T12:52:48.984Z,24.20
2019-02-28T12:55:16.182Z,24.20
2019-02-28T12:57:43.770Z,24.10
2019-02-28T13:00:13.324Z,24.20
2019-02-28T13:02:43.508Z,24.20
2019-02-28T13:05:14.821Z,24.70
2019-02-28T13:07:40.424Z,24.10
2019-02-28T13:10:12.269Z,23.90
2019-02-28T13:12:39.860Z,23.90
2019-02-28T13:15:09.135Z,23.80
2019-02-28T13:17:36.854Z,23.90
2019-02-28T13:20:08.747Z,23.80
2019-02-28T13:22:36.378Z,23.80
2019-02-28T13:25:05.306Z,23.80
2019-02-28T13:27:32.965Z,23.80
2019-02-28T13:30:00.612Z,23.90
2019-02-28T13:32:28.253Z,23.80
2019-02-28T13:34:55.954Z,23.80
2019-02-28T13:37:23.555Z,24.30
2019-02-28T13:39:51.220Z,23.80
2019-02-28T13:42:18.893Z,23.80
2019-02-28T13:44:46.505Z,23.80
2019-02-28T13:47:14.120Z,23.80
2019-02-28T13:49:41.742Z,23.80
2019-02-28T13:52:09.391Z,23.80
2019-02-28T13:54:38.212Z,23.80
2019-02-28T13:57:09.791Z,23.80
2019-02-28T13:59:35.689Z,23.80
2019-02-28T14:02:03.273Z,23.80
2019-02-28T14:04:30.899Z,23.80
2019-02-28T14:06:58.578Z,23.80
2019-02-28T14:09:26.179Z,23.80
2019-02-28T14:11:53.833Z,23.80
2019-02-28T14:14:22.258Z,23.80
2019-02-28T14:16:50.042Z,23.80
2019-02-28T14:19:20.576Z,23.80
2019-02-28T14:21:47.911Z,23.80
2019-02-28T14:24:15.510Z,23.80
2019-02-28T14:26:46.365Z,23.80
2019-02-28T14:29:12.516Z,23.80
2019-02-28T14:31:40.105Z,23.80
2019-02-28T14:34:07.704Z,23.80
2019-02-28T14:36:35.337Z,23.90
2019-02-28T14:39:04.707Z,23.90
2019-02-28T14:41:32.927Z,23.90
2019-02-28T14:44:00.533Z,23.90
2019-02-28T14:46:28.115Z,23.90
2019-02-28T14:48:55.770Z,23.90
2019-02-28T14:51:25.492Z,23.90
2019-02-28T14:53:52.803Z,23.90
2019-02-28T14:56:20.417Z,23.90
2019-02-28T14:58:48.140Z,23.90
2019-02-28T15:01:17.744Z,23.90
2019-02-28T15:03:45.045Z,23.90
2019-02-28T15:06:12.687Z,23.90
2019-02-28T15:08:40.309Z,23.90
2019-02-28T15:11:10.152Z,23.90
2019-02-28T15:13:37.249Z,23.90
2019-02-28T15:16:04.858Z,23.90
2019-02-28T15:18:32.590Z,23.90
2019-02-28T15:21:00.217Z,23.90
2019-02-28T15:23:30.906Z,23.90
2019-02-28T15:25:57.114Z,23.90
2019-02-28T15:28:24.767Z,23.90
2019-02-28T15:30:52.417Z,23.90
2019-02-28T15:33:20.064Z,23.90
2019-02-28T15:35:49.842Z,23.90
2019-02-28T15:38:16.975Z,23.90
2019-02-28T15:40:45.458Z,23.90
2019-02-28T15:43:17.157Z,23.90
2019-02-28T15:45:42.395Z,23.90
2019-02-28T15:48:10.044Z,23.90
2019-02-28T15:50:37.633Z,23.90
2019-02-28T15:53:05.286Z,23.90
2019-02-28T15:55:35.041Z,23.90
2019-02-28T15:58:02.769Z,23.90
2019-02-28T16:00:32.477Z,23.90
2019-02-28T16:03:00.110Z,23.90
2019-02-28T16:05:27.772Z,23.90
2019-02-28T16:07:55.574Z,23.90
2019-02-28T16:10:24.266Z,23.90
2019-02-28T16:12:51.915Z,23.90
2019-02-28T16:15:19.506Z,23.90
2019-02-28T16:17:47.292Z,23.90
2019-02-28T16:20:15.564Z,23.90
2019-02-28T16:22:43.223Z,23.80
2019-02-28T16:25:18.019Z,23.80
2019-02-28T16:27:45.715Z,23.90
2019-02-28T16:30:14.968Z,23.80
2019-02-28T16:32:45.571Z,23.80
2019-02-28T16:35:14.709Z,23.80
2019-02-28T16:37:41.256Z,23.80
2019-02-28T16:40:20.283Z,23.80
2019-02-28T16:42:48.391Z,23.90
2019-02-28T16:45:18.694Z,23.80
2019-02-28T16:47:46.412Z,23.80
2019-02-28T16:50:15.342Z,23.90
2019-02-28T16:52:43.389Z,23.90
2019-02-28T16:55:11.296Z,24.00
2019-02-28T16:57:38.908Z,24.00
2019-02-28T17:00:08.646Z,24.10
2019-02-28T17:02:36.389Z,24.20
2019-02-28T17:05:05.343Z,24.40
2019-02-28T17:07:32.939Z,23.90
2019-02-28T17:10:01.627Z,23.50
2019-02-28T17:12:31.613Z,23.30
2019-02-28T17:14:59.268Z,23.20
2019-02-28T17:17:31.529Z,23.20
2019-02-28T17:19:59.184Z,25.20
2019-02-28T17:22:27.873Z,23.70
2019-02-28T17:24:55.696Z,23.00
2019-02-28T17:27:24.955Z,22.70
2019-02-28T17:29:54.181Z,22.50
2019-02-28T17:32:21.818Z,22.40
2019-02-28T17:34:49.568Z,22.30
2019-02-28T17:37:20.393Z,22.40
2019-02-28T17:39:47.406Z,22.30
2019-02-28T17:42:16.027Z,22.60
2019-02-28T17:44:45.290Z,22.60
2019-02-28T17:47:14.588Z,23.20
2019-02-28T17:50:05.534Z,23.20
2019-02-28T17:52:42.105Z,23.30
2019-02-28T17:55:11.388Z,23.40
2019-02-28T17:57:48.766Z,23.50
2019-02-28T18:00:33.564Z,23.70
2019-02-28T18:03:13.000Z,24.20
2019-02-28T18:05:59.297Z,24.70
2019-02-28T18:08:46.460Z,24.60
2019-02-28T18:11:34.063Z,24.60
2019-02-28T18:14:09.235Z,24.60
2019-02-28T18:16:41.192Z,24.50
2019-02-28T18:19:33.246Z,24.80
2019-02-28T18:22:00.676Z,25.30
2019-02-28T18:24:29.963Z,25.60
2019-02-28T18:27:14.452Z,25.60
2019-02-28T18:29:46.757Z,25.70
2019-02-28T18:32:14.449Z,25.80
2019-02-28T18:34:42.130Z,25.80
2019-02-28T18:37:11.809Z,25.90
2019-02-28T18:39:39.182Z,26.00
2019-02-28T18:42:06.858Z,26.00
2019-02-28T18:44:37.429Z,26.10
2019-02-28T18:47:04.332Z,26.10
2019-02-28T18:49:32.052Z,26.20
2019-02-28T18:51:59.785Z,26.80
2019-02-28T18:54:27.523Z,26.30
2019-02-28T18:56:58.609Z,26.30
2019-02-28T18:59:26.183Z,26.40
2019-02-28T19:01:53.873Z,26.40
2019-02-28T19:04:21.514Z,26.50
2019-02-28T19:06:49.112Z,26.50
2019-02-28T19:09:20.492Z,26.50
2019-02-28T19:11:48.282Z,26.60
2019-02-28T19:14:15.913Z,26.60
2019-02-28T19:16:43.644Z,26.60
2019-02-28T19:19:11.369Z,26.60
2019-02-28T19:21:38.978Z,26.60
2019-02-28T19:24:09.855Z,26.80
2019-02-28T19:26:37.524Z,26.80
2019-02-28T19:29:05.313Z,26.80
2019-02-28T19:31:32.933Z,26.90
2019-02-28T19:34:00.669Z,26.90
2019-02-28T19:36:28.338Z,26.90
2019-02-28T19:38:56.012Z,27.00
2019-02-28T19:41:23.635Z,27.10
2019-02-28T19:43:51.307Z,27.10
2019-02-28T19:46:18.983Z,27.10
2019-02-28T19:48:46.635Z,27.10
2019-02-28T19:51:14.279Z,27.20
2019-02-28T19:53:41.897Z,27.20
2019-02-28T19:56:09.625Z,27.20
2019-02-28T19:58:37.247Z,27.20
2019-02-28T20:01:04.901Z,27.20
2019-02-28T20:03:32.594Z,27.30
2019-02-28T20:06:00.347Z,27.30
2019-02-28T20:08:28.032Z,27.40
2019-02-28T20:10:55.923Z,27.40
2019-02-28T20:13:23.953Z,27.50
2019-02-28T20:15:51.774Z,27.50
2019-02-28T20:18:19.932Z,27.50
2019-02-28T20:20:47.630Z,27.60
2019-02-28T20:23:15.765Z,27.60
2019-02-28T20:25:43.883Z,27.60
2019-02-28T20:28:11.610Z,27.70
2019-02-28T20:30:39.795Z,27.70
2019-02-28T20:33:07.432Z,27.70
2019-02-28T20:35:35.119Z,27.70
2019-02-28T20:38:02.929Z,27.80
2019-02-28T20:40:31.436Z,27.80
2019-02-28T20:42:59.083Z,27.80
2019-02-28T20:45:26.719Z,27.80
2019-02-28T20:47:54.305Z,28.20
2019-02-28T20:50:26.295Z,27.90
2019-02-28T20:52:53.961Z,27.90
2019-02-28T20:55:21.659Z,28.00
2019-02-28T20:57:49.257Z,28.00
2019-02-28T21:00:18.413Z,28.30
2019-02-28T21:02:46.069Z,28.40
2019-02-28T21:05:13.655Z,28.30
2019-02-28T21:07:41.271Z,28.40
2019-02-28T21:10:09.271Z,28.40
2019-02-28T21:12:36.855Z,29.20
2019-02-28T21:15:05.371Z,28.80
2019-02-28T21:17:33.076Z,28.70
2019-02-28T21:20:00.672Z,28.70
2019-02-28T21:22:28.269Z,28.80
2019-02-28T21:24:56.018Z,28.80
2019-02-28T21:27:23.700Z,28.80
2019-02-28T21:29:51.310Z,28.80
2019-02-28T21:32:19.054Z,28.80
2019-02-28T21:34:46.727Z,28.80
2019-02-28T21:37:14.323Z,28.80
2019-02-28T21:39:41.916Z,28.80
2019-02-28T21:42:09.564Z,28.80
2019-02-28T21:44:37.228Z,28.80
2019-02-28T21:47:04.937Z,28.80
2019-02-28T21:49:32.642Z,28.80
2019-02-28T21:52:00.250Z,28.80
2019-02-28T21:54:27.991Z,28.80
2019-02-28T21:56:55.661Z,28.80
2019-02-28T21:59:23.247Z,28.80
2019-02-28T22:01:50.908Z,28.70
2019-02-28T22:04:18.501Z,28.80
2019-02-28T22:06:46.100Z,28.80
2019-02-28T22:09:13.810Z,28.80
2019-02-28T22:11:41.502Z,28.70
2019-02-28T22:14:09.092Z,28.80
2019-02-28T22:16:36.741Z,28.70
2019-02-28T22:19:04.339Z,28.70
2019-02-28T22:21:31.920Z,28.70
2019-02-28T22:23:59.567Z,28.70
2019-02-28T22:26:27.160Z,28.70
2019-02-28T22:28:54.747Z,28.70
2019-02-28T22:31:32.848Z,28.70
2019-02-28T22:34:05.115Z,28.70
2019-02-28T22:36:34.342Z,28.70
2019-02-28T22:39:01.975Z,28.70
2019-02-28T22:41:29.597Z,28.70
2019-02-28T22:43:57.278Z,28.70
2019-02-28T22:46:24.966Z,28.70
2019-02-28T22:48:52.614Z,28.50
2019-02-28T22:51:20.345Z,28.70
2019-02-28T22:53:48.012Z,28.70
2019-02-28T22:56:15.669Z,28.70
2019-02-28T22:58:43.277Z,28.70
2019-02-28T23:01:12.360Z,28.70
2019-02-28T23:03:40.040Z,28.70
2019-02-28T23:06:07.691Z,29.30
2019-02-28T23:08:35.282Z,28.70
2019-02-28T23:11:02.904Z,28.70
2019-02-28T23:13:30.533Z,28.70
2019-02-28T23:15:58.235Z,28.60
2019-02-28T23:18:25.852Z,28.70
2019-02-28T23:20:53.531Z,28.70
2019-02-28T23:23:21.254Z,28.70
2019-02-28T23:25:48.913Z,28.70
2019-02-28T23:28:24.158Z,28.70
2019-02-28T23:30:53.430Z,28.70
2019-02-28T23:33:21.035Z,28.70
2019-02-28T23:35:48.740Z,28.70
2019-02-28T23:38:16.368Z,28.70
2019-02-28T23:40:44.038Z,28.70
2019-02-28T23:43:11.690Z,28.70
2019-02-28T23:45:39.356Z,28.60
2019-02-28T23:48:07.231Z,28.70
2019-02-28T23:50:34.844Z,28.70
2019-02-28T23:53:02.490Z,28.70
2019-02-28T23:55:30.125Z,28.70
2019-02-28T23:57:57.739Z,29.20
